createdAt,value
2018-07-26T00:01:27.557Z,50.40
2018-07-26T00:03:55.628Z,50.30
2018-07-26T00:06:23.719Z,50.30
2018-07-26T00:08:51.932Z,50.30
2018-07-26T00:11:20.045Z,50.30
2018-07-26T00:13:48.186Z,50.20
2018-07-26T00:16:16.289Z,50.30
2018-07-26T00:18:44.400Z,50.30
2018-07-26T00:21:12.485Z,50.20
2018-07-26T00:23:40.607Z,50.30
2018-07-26T00:26:08.816Z,50.20
2018-07-26T00:28:36.972Z,50.30
2018-07-26T00:31:05.133Z,50.20
2018-07-26T00:33:33.251Z,50.10
2018-07-26T00:36:01.353Z,50.20
2018-07-26T00:38:29.445Z,50.20
2018-07-26T00:40:57.500Z,50.20
2018-07-26T00:43:25.590Z,50.20
2018-07-26T00:45:53.672Z,50.20
2018-07-26T00:48:21.768Z,50.20
2018-07-26T00:50:49.861Z,50.20
2018-07-26T00:53:17.989Z,50.20
2018-07-26T00:55:46.058Z,50.20
2018-07-26T00:58:14.128Z,50.20
2018-07-26T01:03:10.095Z,49.90
2018-07-26T01:05:38.168Z,50.20
2018-07-26T01:08:06.284Z,50.20
2018-07-26T01:10:34.418Z,50.20
2018-07-26T01:13:02.527Z,50.30
2018-07-26T01:15:30.629Z,50.30
2018-07-26T01:17:58.887Z,50.30
2018-07-26T01:20:26.973Z,50.30
2018-07-26T01:22:55.059Z,50.30
2018-07-26T01:25:23.132Z,50.30
2018-07-26T01:27:51.220Z,50.30
2018-07-26T01:30:19.307Z,50.30
2018-07-26T01:32:47.364Z,50.30
2018-07-26T01:35:15.529Z,50.30
2018-07-26T01:37:43.633Z,50.30
2018-07-26T01:40:11.704Z,50.30
2018-07-26T01:43:51.519Z,50.30
2018-07-26T01:46:20.780Z,50.30
2018-07-26T01:48:48.878Z,50.20
2018-07-26T01:51:16.972Z,50.20
2018-07-26T01:53:45.484Z,50.20
2018-07-26T01:56:13.558Z,50.20
2018-07-26T01:58:41.668Z,50.30
2018-07-26T02:01:10.896Z,50.30
2018-07-26T02:06:07.991Z,50.30
2018-07-26T02:11:04.332Z,50.20
2018-07-26T02:13:33.036Z,50.20
2018-07-26T02:16:01.108Z,50.20
2018-07-26T02:18:29.170Z,50.20
2018-07-26T02:20:57.308Z,50.20
2018-07-26T02:23:25.796Z,50.10
2018-07-26T02:25:54.272Z,50.50
2018-07-26T02:28:22.389Z,50.10
2018-07-26T02:30:50.499Z,50.10
2018-07-26T02:33:18.586Z,50.00
2018-07-26T02:35:46.737Z,50.00
2018-07-26T02:38:14.830Z,50.10
2018-07-26T02:40:42.916Z,50.10
2018-07-26T02:43:11.879Z,50.00
2018-07-26T02:45:40.172Z,50.00
2018-07-26T02:48:08.593Z,50.00
2018-07-26T02:50:36.711Z,50.00
2018-07-26T02:53:04.845Z,50.00
2018-07-26T02:55:33.089Z,50.00
2018-07-26T02:58:01.789Z,49.90
2018-07-26T03:00:29.871Z,49.90
2018-07-26T03:02:57.961Z,49.90
2018-07-26T03:05:26.077Z,49.90
2018-07-26T03:07:54.165Z,49.80
2018-07-26T03:10:22.235Z,49.80
2018-07-26T03:12:50.304Z,49.80
2018-07-26T03:15:18.381Z,49.90
2018-07-26T03:17:46.441Z,49.90
2018-07-26T03:20:14.578Z,49.80
2018-07-26T03:22:42.641Z,49.90
2018-07-26T03:25:10.720Z,49.80
2018-07-26T03:27:38.924Z,49.80
2018-07-26T03:30:07.697Z,49.80
2018-07-26T03:32:35.804Z,49.80
2018-07-26T03:35:03.984Z,49.80
2018-07-26T03:37:32.064Z,49.70
2018-07-26T03:40:00.136Z,49.70
2018-07-26T03:42:28.277Z,49.70
2018-07-26T03:44:56.364Z,49.70
2018-07-26T03:47:24.432Z,50.10
2018-07-26T03:49:52.512Z,49.60
2018-07-26T03:52:20.589Z,49.60
2018-07-26T03:54:48.662Z,49.60
2018-07-26T03:57:16.878Z,49.60
2018-07-26T03:59:44.962Z,49.50
2018-07-26T04:02:13.057Z,49.60
2018-07-26T04:04:41.148Z,49.50
2018-07-26T04:07:09.251Z,49.50
2018-07-26T04:12:05.484Z,49.50
2018-07-26T04:14:33.957Z,49.50
2018-07-26T04:17:02.260Z,49.50
2018-07-26T04:19:30.512Z,49.50
2018-07-26T04:21:58.575Z,49.40
2018-07-26T04:24:26.626Z,49.40
2018-07-26T04:26:54.761Z,49.40
2018-07-26T04:29:22.913Z,49.40
2018-07-26T04:31:51.052Z,49.40
2018-07-26T04:34:19.047Z,49.30
2018-07-26T04:36:47.119Z,49.30
2018-07-26T04:39:15.199Z,49.30
2018-07-26T04:41:43.313Z,49.30
2018-07-26T04:44:11.410Z,49.30
2018-07-26T04:46:39.496Z,49.30
2018-07-26T04:49:07.668Z,49.30
2018-07-26T04:51:35.825Z,49.60
2018-07-26T04:54:04.023Z,49.20
2018-07-26T04:56:32.189Z,49.30
2018-07-26T04:59:00.272Z,49.20
2018-07-26T05:01:28.372Z,49.20
2018-07-26T05:03:56.456Z,49.20
2018-07-26T05:06:24.560Z,49.20
2018-07-26T05:08:52.684Z,49.10
2018-07-26T05:11:20.786Z,49.10
2018-07-26T05:13:48.892Z,49.10
2018-07-26T05:16:16.979Z,49.10
2018-07-26T05:18:45.047Z,49.10
2018-07-26T05:21:13.298Z,49.10
2018-07-26T05:23:41.527Z,49.10
2018-07-26T05:26:09.684Z,49.10
2018-07-26T05:28:38.700Z,49.10
2018-07-26T05:31:06.920Z,49.60
2018-07-26T05:33:35.304Z,49.00
2018-07-26T05:36:03.432Z,49.00
2018-07-26T05:38:32.462Z,49.00
2018-07-26T05:41:00.600Z,49.00
2018-07-26T05:43:28.721Z,49.60
2018-07-26T05:45:56.791Z,49.00
2018-07-26T05:48:24.967Z,49.00
2018-07-26T05:50:53.176Z,49.00
2018-07-26T05:53:21.452Z,49.00
2018-07-26T05:58:17.633Z,49.60
2018-07-26T06:00:45.872Z,48.90
2018-07-26T06:03:14.148Z,48.90
2018-07-26T06:05:42.228Z,48.90
2018-07-26T06:08:10.540Z,48.90
2018-07-26T06:10:38.752Z,48.90
2018-07-26T06:13:07.149Z,48.90
2018-07-26T06:15:35.605Z,48.90
2018-07-26T06:18:03.733Z,48.90
2018-07-26T06:20:32.555Z,48.90
2018-07-26T06:23:01.496Z,48.90
2018-07-26T06:25:29.557Z,48.90
2018-07-26T06:27:57.888Z,48.90
2018-07-26T06:30:26.009Z,48.90
2018-07-26T06:32:54.088Z,48.90
2018-07-26T06:35:22.158Z,48.90
2018-07-26T06:37:50.336Z,48.90
2018-07-26T06:40:18.429Z,48.90
2018-07-26T06:42:46.554Z,48.90
2018-07-26T06:45:14.786Z,48.80
2018-07-26T06:47:42.924Z,49.50
2018-07-26T06:50:12.796Z,48.80
2018-07-26T06:52:41.629Z,49.50
2018-07-26T06:55:10.115Z,48.80
2018-07-26T06:57:38.630Z,48.90
2018-07-26T07:00:08.292Z,48.80
2018-07-26T07:02:36.430Z,48.90
2018-07-26T07:05:04.640Z,48.80
2018-07-26T07:07:32.888Z,48.90
2018-07-26T07:10:01.147Z,48.80
2018-07-26T07:12:29.228Z,48.80
2018-07-26T07:14:57.439Z,48.70
2018-07-26T07:17:25.690Z,48.70
2018-07-26T07:19:53.834Z,48.70
2018-07-26T07:22:21.970Z,48.70
2018-07-26T07:24:50.047Z,48.70
2018-07-26T07:27:18.142Z,48.70
2018-07-26T07:29:46.220Z,48.70
2018-07-26T07:32:14.339Z,48.60
2018-07-26T07:34:42.944Z,48.60
2018-07-26T07:37:11.255Z,48.60
2018-07-26T07:39:39.342Z,48.50
2018-07-26T07:42:07.865Z,48.50
2018-07-26T07:44:36.013Z,48.50
2018-07-26T07:47:04.112Z,48.50
2018-07-26T07:49:32.346Z,48.40
2018-07-26T07:52:00.450Z,48.40
2018-07-26T07:54:28.516Z,48.40
2018-07-26T07:56:56.655Z,48.30
2018-07-26T07:59:24.828Z,48.30
2018-07-26T08:01:52.897Z,48.20
2018-07-26T08:04:20.996Z,48.10
2018-07-26T08:06:49.296Z,48.10
2018-07-26T08:09:17.364Z,48.10
2018-07-26T08:11:45.520Z,48.10
2018-07-26T08:14:13.600Z,48.00
2018-07-26T08:16:41.687Z,48.00
2018-07-26T08:19:09.777Z,48.00
2018-07-26T08:21:37.974Z,48.00
2018-07-26T08:24:06.213Z,47.90
2018-07-26T08:26:34.359Z,47.80
2018-07-26T08:29:02.452Z,47.80
2018-07-26T08:31:30.775Z,47.60
2018-07-26T08:33:59.182Z,47.60
2018-07-26T08:36:27.268Z,47.60
2018-07-26T08:38:55.343Z,47.50
2018-07-26T08:43:51.368Z,47.40
2018-07-26T08:46:19.878Z,47.40
2018-07-26T08:48:47.956Z,47.30
2018-07-26T08:51:16.193Z,47.20
2018-07-26T08:53:44.445Z,47.20
2018-07-26T08:58:40.513Z,46.70
2018-07-26T09:03:36.584Z,47.00
2018-07-26T09:06:04.759Z,47.00
2018-07-26T09:08:32.918Z,47.30
2018-07-26T09:11:01.076Z,46.80
2018-07-26T09:13:29.212Z,46.70
2018-07-26T09:15:57.238Z,46.80
2018-07-26T09:18:25.330Z,46.70
2018-07-26T09:20:53.464Z,46.60
2018-07-26T09:23:21.748Z,46.50
2018-07-26T09:25:49.896Z,46.50
2018-07-26T09:28:17.987Z,47.00
2018-07-26T09:30:46.063Z,46.40
2018-07-26T09:33:14.243Z,46.30
2018-07-26T09:35:42.341Z,46.30
2018-07-26T09:38:10.416Z,46.30
2018-07-26T09:40:38.660Z,46.20
2018-07-26T09:43:06.856Z,46.20
2018-07-26T09:45:35.039Z,45.70
2018-07-26T09:48:03.667Z,46.10
2018-07-26T09:50:31.777Z,46.10
2018-07-26T09:52:59.864Z,46.20
2018-07-26T09:55:27.972Z,46.00
2018-07-26T09:57:56.235Z,45.90
2018-07-26T10:01:30.739Z,45.80
2018-07-26T10:03:59.703Z,46.00
2018-07-26T10:06:28.286Z,45.90
2018-07-26T10:08:56.431Z,45.90
2018-07-26T10:13:53.521Z,45.90
2018-07-26T10:16:21.657Z,45.90
2018-07-26T10:18:49.804Z,45.80
2018-07-26T10:21:17.881Z,45.80
2018-07-26T10:23:45.945Z,45.70
2018-07-26T10:26:14.292Z,45.60
2018-07-26T10:28:42.384Z,45.80
2018-07-26T10:31:10.560Z,45.70
2018-07-26T10:33:38.640Z,45.70
2018-07-26T10:36:06.750Z,45.70
2018-07-26T10:38:35.036Z,45.70
2018-07-26T10:41:03.292Z,45.60
2018-07-26T10:43:31.421Z,45.50
2018-07-26T10:45:59.552Z,45.50
2018-07-26T10:48:27.639Z,45.50
2018-07-26T10:50:55.775Z,45.40
2018-07-26T10:53:23.895Z,45.40
2018-07-26T10:55:52.079Z,45.50
2018-07-26T10:58:20.248Z,45.40
2018-07-26T11:00:48.418Z,45.40
2018-07-26T11:03:23.660Z,45.40
2018-07-26T11:05:51.840Z,45.30
2018-07-26T11:08:20.376Z,45.30
2018-07-26T11:10:48.483Z,45.30
2018-07-26T11:13:16.585Z,45.40
2018-07-26T11:15:44.776Z,45.50
2018-07-26T11:18:12.851Z,45.50
2018-07-26T11:20:40.985Z,45.50
2018-07-26T11:23:09.085Z,45.50
2018-07-26T11:25:37.239Z,45.60
2018-07-26T11:28:06.092Z,45.50
2018-07-26T11:33:02.268Z,45.50
2018-07-26T11:35:30.414Z,45.50
2018-07-26T11:37:58.570Z,45.40
2018-07-26T11:40:26.692Z,45.40
2018-07-26T11:42:54.791Z,45.40
2018-07-26T11:45:22.896Z,45.40
2018-07-26T11:47:50.984Z,45.30
2018-07-26T11:50:23.928Z,45.30
2018-07-26T11:52:52.325Z,45.20
2018-07-26T11:55:20.367Z,46.00
2018-07-26T11:57:48.854Z,45.70
2018-07-26T12:00:17.043Z,45.60
2018-07-26T12:02:45.712Z,45.40
2018-07-26T12:05:14.037Z,45.60
2018-07-26T12:07:42.141Z,45.80
2018-07-26T12:10:11.325Z,45.70
2018-07-26T12:12:39.415Z,45.70
2018-07-26T12:15:07.496Z,45.70
2018-07-26T12:17:35.622Z,45.80
2018-07-26T12:20:04.197Z,45.90
2018-07-26T12:22:32.283Z,46.20
2018-07-26T12:25:00.405Z,46.30
2018-07-26T12:27:28.480Z,47.00
2018-07-26T12:29:56.572Z,48.20
2018-07-26T12:32:24.760Z,47.20
2018-07-26T12:34:52.966Z,46.70
2018-07-26T12:37:21.129Z,46.90
2018-07-26T12:39:49.232Z,46.40
2018-07-26T12:42:17.401Z,46.00
2018-07-26T12:44:45.529Z,45.90
2018-07-26T12:47:13.668Z,45.90
2018-07-26T12:49:41.760Z,46.00
2018-07-26T12:52:12.160Z,45.70
2018-07-26T12:54:40.274Z,45.80
2018-07-26T12:57:08.339Z,45.60
2018-07-26T12:59:36.466Z,45.40
2018-07-26T13:02:04.577Z,45.80
2018-07-26T13:04:32.648Z,45.70
2018-07-26T13:07:00.767Z,45.50
2018-07-26T13:09:28.885Z,45.40
2018-07-26T13:11:57.040Z,45.30
2018-07-26T13:14:25.204Z,45.10
2018-07-26T13:16:53.322Z,44.90
2018-07-26T13:19:21.436Z,44.70
2018-07-26T13:21:49.816Z,44.60
2018-07-26T13:24:17.948Z,44.60
2018-07-26T13:26:46.198Z,44.30
2018-07-26T13:29:14.358Z,44.40
2018-07-26T13:31:42.434Z,44.40
2018-07-26T13:34:10.754Z,44.40
2018-07-26T13:36:38.970Z,44.40
2018-07-26T13:39:09.672Z,44.40
2018-07-26T13:41:37.785Z,44.70
2018-07-26T13:44:06.041Z,44.70
2018-07-26T13:46:34.112Z,44.80
2018-07-26T13:49:02.375Z,44.50
2018-07-26T13:51:30.467Z,44.20
2018-07-26T13:53:58.575Z,44.20
2018-07-26T13:56:26.703Z,44.70
2018-07-26T13:58:54.778Z,44.70
2018-07-26T14:01:22.869Z,44.70
2018-07-26T14:03:51.048Z,44.70
2018-07-26T14:06:19.136Z,44.80
2018-07-26T14:08:47.263Z,45.00
2018-07-26T14:11:15.347Z,45.10
2018-07-26T14:13:43.440Z,45.10
2018-07-26T14:16:11.516Z,45.10
2018-07-26T14:18:39.589Z,44.90
2018-07-26T14:21:07.776Z,44.70
2018-07-26T14:23:38.578Z,45.00
2018-07-26T14:26:08.397Z,44.50
2018-07-26T14:28:36.538Z,44.90
2018-07-26T14:31:04.661Z,45.10
2018-07-26T14:33:32.745Z,45.30
2018-07-26T14:36:00.900Z,45.30
2018-07-26T14:38:29.049Z,45.40
2018-07-26T14:40:57.165Z,45.30
2018-07-26T14:43:25.512Z,45.20
2018-07-26T14:45:53.672Z,45.10
2018-07-26T14:48:21.755Z,45.00
2018-07-26T14:50:49.835Z,44.90
2018-07-26T14:53:18.132Z,44.80
2018-07-26T14:55:46.217Z,45.00
2018-07-26T14:58:14.299Z,45.00
2018-07-26T15:00:42.396Z,44.90
2018-07-26T15:03:11.399Z,45.00
2018-07-26T15:05:39.580Z,44.90
2018-07-26T15:08:07.672Z,45.10
2018-07-26T15:10:35.785Z,45.20
2018-07-26T15:13:03.924Z,45.30
2018-07-26T15:15:32.042Z,45.00
2018-07-26T15:18:00.148Z,44.90
2018-07-26T15:20:28.359Z,44.90
2018-07-26T15:22:56.458Z,44.80
2018-07-26T15:25:25.582Z,44.70
2018-07-26T15:27:55.004Z,44.70
2018-07-26T15:30:23.434Z,45.00
2018-07-26T15:32:52.369Z,45.00
2018-07-26T15:35:20.414Z,45.00
2018-07-26T15:37:49.106Z,45.10
2018-07-26T15:40:17.405Z,45.70
2018-07-26T15:42:45.719Z,45.30
2018-07-26T15:45:13.956Z,45.10
2018-07-26T15:47:42.083Z,45.20
2018-07-26T15:52:38.165Z,45.30
2018-07-26T15:55:06.264Z,45.50
2018-07-26T15:57:34.433Z,45.50
2018-07-26T16:00:02.621Z,45.50
2018-07-26T16:02:30.716Z,45.70
2018-07-26T16:04:58.892Z,45.90
2018-07-26T16:07:27.009Z,45.80
2018-07-26T16:09:55.161Z,45.80
2018-07-26T16:12:23.320Z,46.00
2018-07-26T16:14:51.696Z,46.00
2018-07-26T16:17:19.820Z,46.00
2018-07-26T16:19:47.891Z,46.00
2018-07-26T16:22:15.973Z,45.90
2018-07-26T16:24:44.085Z,46.00
2018-07-26T16:27:12.257Z,45.80
2018-07-26T16:29:40.593Z,45.80
2018-07-26T16:32:08.897Z,45.80
2018-07-26T16:34:37.135Z,45.90
2018-07-26T16:37:05.220Z,45.70
2018-07-26T16:39:33.333Z,45.50
2018-07-26T16:42:01.443Z,45.40
2018-07-26T16:44:29.611Z,45.40
2018-07-26T16:46:57.756Z,45.20
2018-07-26T16:49:28.033Z,45.90
2018-07-26T16:51:56.332Z,45.10
2018-07-26T16:54:24.482Z,45.00
2018-07-26T16:56:52.652Z,44.50
2018-07-26T16:59:20.814Z,44.50
2018-07-26T17:01:48.896Z,44.30
2018-07-26T17:04:17.016Z,44.30
2018-07-26T17:06:45.077Z,44.20
2018-07-26T17:09:13.152Z,44.10
2018-07-26T17:11:41.281Z,44.20
2018-07-26T17:14:09.403Z,43.80
2018-07-26T17:16:37.534Z,44.00
2018-07-26T17:19:05.649Z,44.00
2018-07-26T17:21:33.734Z,44.00
2018-07-26T17:24:01.801Z,43.90
2018-07-26T17:26:29.933Z,44.00
2018-07-26T17:28:58.046Z,43.90
2018-07-26T17:31:26.146Z,43.90
2018-07-26T17:33:54.491Z,43.80
2018-07-26T17:36:22.715Z,44.00
2018-07-26T17:38:50.810Z,43.90
2018-07-26T17:41:18.920Z,44.00
2018-07-26T17:43:47.221Z,43.80
2018-07-26T17:46:15.240Z,43.80
2018-07-26T17:48:43.333Z,43.90
2018-07-26T17:51:11.523Z,44.40
2018-07-26T17:53:39.532Z,43.80
2018-07-26T17:56:08.029Z,43.90
2018-07-26T17:58:36.132Z,43.90
2018-07-26T18:01:04.248Z,44.00
2018-07-26T18:03:32.311Z,44.00
2018-07-26T18:06:00.456Z,44.00
2018-07-26T18:08:28.784Z,44.00
2018-07-26T18:10:56.924Z,43.90
2018-07-26T18:13:25.025Z,44.00
2018-07-26T18:15:53.200Z,43.90
2018-07-26T18:18:21.288Z,44.00
2018-07-26T18:20:49.352Z,44.00
2018-07-26T18:23:17.455Z,44.00
2018-07-26T18:25:45.741Z,44.00
2018-07-26T18:28:13.844Z,44.10
2018-07-26T18:30:41.960Z,44.10
2018-07-26T18:33:10.012Z,44.10
2018-07-26T18:35:38.100Z,44.10
2018-07-26T18:38:06.325Z,44.10
2018-07-26T18:43:02.283Z,44.00
2018-07-26T18:45:30.365Z,44.00
2018-07-26T18:47:58.489Z,44.10
2018-07-26T18:50:26.572Z,44.00
2018-07-26T18:52:54.740Z,44.20
2018-07-26T18:55:22.799Z,44.10
2018-07-26T18:57:50.928Z,44.10
2018-07-26T19:00:18.992Z,44.20
2018-07-26T19:02:47.092Z,44.10
2018-07-26T19:05:15.246Z,44.10
2018-07-26T19:07:43.332Z,44.10
2018-07-26T19:10:12.116Z,44.10
2018-07-26T19:12:40.219Z,44.10
2018-07-26T19:15:10.953Z,44.10
2018-07-26T19:17:39.016Z,44.20
2018-07-26T19:20:08.880Z,44.10
2018-07-26T19:22:37.354Z,44.10
2018-07-26T19:25:06.006Z,44.10
2018-07-26T19:27:34.089Z,44.10
2018-07-26T19:30:02.238Z,44.10
2018-07-26T19:32:30.346Z,44.20
2018-07-26T19:37:26.416Z,44.20
2018-07-26T19:39:54.528Z,44.20
2018-07-26T19:42:22.675Z,44.20
2018-07-26T19:44:50.748Z,44.20
2018-07-26T19:47:18.817Z,44.70
2018-07-26T19:49:46.926Z,44.20
2018-07-26T19:52:15.020Z,44.10
2018-07-26T19:54:43.096Z,44.80
2018-07-26T19:57:11.214Z,43.60
2018-07-26T19:59:39.336Z,44.20
2018-07-26T20:02:07.673Z,44.20
2018-07-26T20:04:35.931Z,44.20
2018-07-26T20:07:04.068Z,44.30
2018-07-26T20:09:32.158Z,44.30
2018-07-26T20:12:00.504Z,44.30
2018-07-26T20:14:28.711Z,44.30
2018-07-26T20:16:57.261Z,44.30
2018-07-26T20:19:25.513Z,44.40
2018-07-26T20:21:53.911Z,44.40
2018-07-26T20:24:22.168Z,44.50
2018-07-26T20:26:50.330Z,44.40
2018-07-26T20:29:18.638Z,44.50
2018-07-26T20:31:46.866Z,44.40
2018-07-26T20:34:15.003Z,44.40
2018-07-26T20:36:43.165Z,44.40
2018-07-26T20:39:13.297Z,44.50
2018-07-26T20:41:41.514Z,44.50
2018-07-26T20:44:10.428Z,44.50
2018-07-26T20:46:38.883Z,45.20
2018-07-26T20:49:07.185Z,44.70
2018-07-26T20:51:35.476Z,44.60
2018-07-26T20:54:03.606Z,44.70
2018-07-26T20:56:31.692Z,44.60
2018-07-26T20:59:00.017Z,44.70
2018-07-26T21:01:28.192Z,44.70
2018-07-26T21:03:56.468Z,44.70
2018-07-26T21:06:24.704Z,44.80
2018-07-26T21:08:52.852Z,44.80
2018-07-26T21:11:21.142Z,44.80
2018-07-26T21:13:49.308Z,44.90
2018-07-26T21:16:17.697Z,44.80
2018-07-26T21:18:45.939Z,44.80
2018-07-26T21:21:14.015Z,44.90
2018-07-26T21:23:42.087Z,45.00
2018-07-26T21:26:10.165Z,45.00
2018-07-26T21:28:38.230Z,45.00
2018-07-26T21:31:06.544Z,45.00
2018-07-26T21:33:34.767Z,45.00
2018-07-26T21:36:02.816Z,45.10
2018-07-26T21:38:30.893Z,45.10
2018-07-26T21:40:59.025Z,45.20
2018-07-26T21:43:27.140Z,45.20
2018-07-26T21:45:55.229Z,45.30
2018-07-26T21:48:23.357Z,45.20
2018-07-26T21:50:51.456Z,45.30
2018-07-26T21:53:19.539Z,45.20
2018-07-26T21:55:47.669Z,45.30
2018-07-26T21:58:15.770Z,45.30
2018-07-26T22:00:49.368Z,45.40
2018-07-26T22:03:17.508Z,45.40
2018-07-26T22:05:45.580Z,45.40
2018-07-26T22:08:13.650Z,45.40
2018-07-26T22:10:41.720Z,45.50
2018-07-26T22:13:09.793Z,45.50
2018-07-26T22:15:38.881Z,45.50
2018-07-26T22:18:06.960Z,45.50
2018-07-26T22:20:35.048Z,45.50
2018-07-26T22:23:03.198Z,45.50
2018-07-26T22:25:31.304Z,45.60
2018-07-26T22:27:59.440Z,45.50
2018-07-26T22:30:27.545Z,45.90
2018-07-26T22:32:55.637Z,45.60
2018-07-26T22:35:23.851Z,45.70
2018-07-26T22:40:20.241Z,45.80
2018-07-26T22:42:48.315Z,45.70
2018-07-26T22:45:16.469Z,45.80
2018-07-26T22:47:44.519Z,45.80
2018-07-26T22:50:12.565Z,45.90
2018-07-26T22:52:40.741Z,45.80
2018-07-26T22:57:37.193Z,45.90
2018-07-26T23:00:06.080Z,45.90
2018-07-26T23:02:34.256Z,46.50
2018-07-26T23:05:02.408Z,45.90
2018-07-26T23:07:30.479Z,45.90
2018-07-26T23:09:58.754Z,46.00
2018-07-26T23:12:26.901Z,46.00
2018-07-26T23:14:54.998Z,46.00
2018-07-26T23:17:24.329Z,46.00
2018-07-26T23:19:52.534Z,46.00
2018-07-26T23:22:20.602Z,46.00
2018-07-26T23:24:48.691Z,46.00
2018-07-26T23:27:16.770Z,46.10
2018-07-26T23:29:44.846Z,46.10
2018-07-26T23:32:12.939Z,46.10
2018-07-26T23:34:41.046Z,46.20
2018-07-26T23:37:09.134Z,46.20
2018-07-26T23:39:37.190Z,46.20
2018-07-26T23:42:05.297Z,46.40
2018-07-26T23:44:33.353Z,46.20
2018-07-26T23:47:01.422Z,46.20
2018-07-26T23:49:29.491Z,46.20
2018-07-26T23:51:57.651Z,46.20
2018-07-26T23:54:25.736Z,46.20
2018-07-26T23:56:53.850Z,46.30
2018-07-26T23:59:21.992Z,46.30
